createdAt,value
2023-03-29T00:00:14.106Z,9.72
2023-03-29T00:02:49.123Z,9.68
2023-03-29T00:05:25.339Z,9.64
2023-03-29T00:08:02.232Z,9.69
2023-03-29T00:10:34.911Z,9.68
2023-03-29T00:13:07.173Z,9.69
2023-03-29T00:15:39.068Z,9.70
2023-03-29T00:18:11.770Z,9.78
2023-03-29T00:20:43.677Z,9.79
2023-03-29T00:23:16.206Z,9.75
2023-03-29T00:25:48.429Z,9.56
2023-03-29T00:28:21.027Z,9.66
2023-03-29T00:30:53.927Z,9.72
2023-03-29T00:33:26.254Z,9.73
2023-03-29T00:35:58.651Z,9.87
2023-03-29T00:38:32.203Z,9.87
2023-03-29T00:41:06.823Z,10.03
2023-03-29T00:44:01.896Z,9.92
2023-03-29T00:46:34.935Z,9.78
2023-03-29T00:49:13.089Z,9.71
2023-03-29T00:51:45.910Z,9.84
2023-03-29T00:54:19.981Z,9.85
2023-03-29T00:56:52.495Z,9.80
2023-03-29T00:59:28.899Z,9.48
2023-03-29T01:02:05.288Z,9.43
2023-03-29T01:04:50.112Z,9.52
2023-03-29T01:08:21.596Z,9.68
2023-03-29T01:11:30.339Z,9.89
2023-03-29T01:14:10.077Z,9.94
2023-03-29T01:16:43.012Z,9.95
2023-03-29T01:19:21.815Z,9.94
2023-03-29T01:22:42.638Z,9.78
2023-03-29T01:25:41.758Z,9.67
2023-03-29T01:28:22.134Z,9.73
2023-03-29T01:31:07.034Z,9.70
2023-03-29T01:33:46.573Z,9.77
2023-03-29T01:36:30.177Z,9.99
2023-03-29T01:39:05.347Z,9.79
2023-03-29T01:42:17.166Z,10.06
2023-03-29T01:45:24.323Z,10.19
2023-03-29T01:48:16.782Z,10.29
2023-03-29T01:51:04.800Z,10.40
2023-03-29T01:54:10.757Z,10.23
2023-03-29T01:56:45.911Z,10.35
2023-03-29T01:59:28.603Z,10.43
2023-03-29T02:02:06.355Z,10.47
2023-03-29T02:04:50.430Z,10.42
2023-03-29T02:07:30.449Z,10.49
2023-03-29T02:10:07.248Z,10.67
2023-03-29T02:12:39.361Z,11.05
2023-03-29T02:18:09.263Z,11.80
2023-03-29T02:20:47.742Z,12.05
2023-03-29T02:23:34.433Z,12.27
2023-03-29T02:26:09.321Z,12.25
2023-03-29T02:28:42.300Z,12.31
2023-03-29T02:31:27.257Z,12.38
2023-03-29T02:34:27.251Z,12.41
2023-03-29T02:37:04.757Z,12.40
2023-03-29T02:39:38.569Z,12.35
2023-03-29T02:42:11.730Z,12.36
2023-03-29T02:44:45.568Z,12.34
2023-03-29T02:47:45.840Z,12.30
2023-03-29T02:50:19.951Z,12.31
2023-03-29T02:52:59.883Z,12.29
2023-03-29T02:55:34.798Z,12.21
2023-03-29T02:58:08.684Z,12.29
2023-03-29T03:00:49.042Z,12.34
2023-03-29T03:03:21.475Z,12.40
2023-03-29T03:05:54.686Z,12.49
2023-03-29T03:11:20.230Z,12.50
2023-03-29T03:13:53.721Z,12.50
2023-03-29T03:16:26.255Z,12.58
2023-03-29T03:21:52.120Z,12.55
2023-03-29T03:24:28.422Z,12.60
2023-03-29T03:27:01.564Z,12.63
2023-03-29T03:29:35.755Z,12.57
2023-03-29T03:32:22.818Z,12.63
2023-03-29T03:35:14.040Z,12.63
2023-03-29T03:37:46.592Z,12.68
2023-03-29T03:40:18.568Z,12.69
2023-03-29T03:42:51.521Z,12.72
2023-03-29T03:45:24.446Z,12.72
2023-03-29T03:48:01.121Z,12.72
2023-03-29T03:51:00.350Z,12.71
2023-03-29T03:53:38.431Z,12.74
2023-03-29T03:56:20.446Z,12.69
2023-03-29T03:59:11.385Z,12.74
2023-03-29T04:01:54.972Z,12.74
2023-03-29T04:04:49.478Z,12.75
2023-03-29T04:07:25.308Z,12.73
2023-03-29T04:10:00.813Z,12.73
2023-03-29T04:12:51.125Z,12.77
2023-03-29T04:15:24.222Z,12.78
2023-03-29T04:18:07.198Z,12.73
2023-03-29T04:20:46.332Z,12.74
2023-03-29T04:23:22.619Z,12.73
2023-03-29T04:25:57.020Z,12.76
2023-03-29T04:28:50.810Z,12.76
2023-03-29T04:31:28.227Z,12.75
2023-03-29T04:34:27.402Z,12.82
2023-03-29T04:37:01.650Z,12.84
2023-03-29T04:39:34.290Z,12.82
2023-03-29T04:42:11.883Z,12.84
2023-03-29T04:44:44.831Z,12.93
2023-03-29T04:47:21.160Z,12.85
2023-03-29T04:49:58.376Z,12.87
2023-03-29T04:52:42.040Z,12.92
2023-03-29T04:55:15.402Z,12.95
2023-03-29T04:57:59.543Z,12.93
2023-03-29T05:00:44.298Z,12.91
2023-03-29T05:03:31.149Z,12.96
2023-03-29T05:06:15.709Z,12.92
2023-03-29T05:08:48.298Z,12.92
2023-03-29T05:11:27.622Z,12.95
2023-03-29T05:14:03.647Z,12.89
2023-03-29T05:16:40.941Z,12.85
2023-03-29T05:19:15.205Z,12.88
2023-03-29T05:21:53.020Z,12.80
2023-03-29T05:24:47.002Z,12.82
2023-03-29T05:27:22.922Z,12.80
2023-03-29T05:30:07.226Z,12.78
2023-03-29T05:32:50.057Z,12.76
2023-03-29T05:35:29.454Z,12.76
2023-03-29T05:38:04.491Z,12.77
2023-03-29T05:40:40.712Z,12.81
2023-03-29T05:43:27.362Z,12.87
2023-03-29T05:46:02.634Z,12.91
2023-03-29T05:48:36.313Z,12.93
2023-03-29T05:51:10.495Z,12.94
2023-03-29T05:53:45.944Z,12.98
2023-03-29T05:56:19.854Z,13.04
2023-03-29T05:58:56.863Z,13.09
2023-03-29T06:01:31.919Z,13.14
2023-03-29T06:04:09.025Z,13.11
2023-03-29T06:09:21.050Z,13.09
2023-03-29T06:12:08.433Z,13.21
2023-03-29T06:14:45.588Z,13.20
2023-03-29T06:17:36.889Z,13.48
2023-03-29T06:20:12.809Z,13.44
2023-03-29T06:22:50.385Z,13.39
2023-03-29T06:25:25.371Z,13.39
2023-03-29T06:30:56.336Z,13.30
2023-03-29T06:33:35.652Z,13.38
2023-03-29T06:36:16.146Z,13.33
2023-03-29T06:38:50.496Z,13.39
2023-03-29T06:41:39.394Z,13.46
2023-03-29T06:44:12.780Z,13.45
2023-03-29T06:46:58.614Z,13.46
2023-03-29T06:49:31.707Z,13.48
2023-03-29T06:52:16.909Z,13.50
2023-03-29T06:54:51.586Z,13.48
2023-03-29T06:57:24.227Z,13.57
2023-03-29T06:59:57.945Z,13.72
2023-03-29T07:02:47.744Z,13.80
2023-03-29T07:05:21.928Z,13.86
2023-03-29T07:07:59.066Z,13.88
2023-03-29T07:11:02.594Z,13.81
2023-03-29T07:13:53.985Z,13.97
2023-03-29T07:19:34.048Z,13.90
2023-03-29T07:22:14.676Z,13.92
2023-03-29T07:25:05.845Z,13.86
2023-03-29T07:27:42.788Z,14.00
2023-03-29T07:30:20.347Z,14.06
2023-03-29T07:32:53.211Z,14.05
2023-03-29T07:35:49.426Z,14.01
2023-03-29T07:38:21.741Z,14.07
2023-03-29T07:41:08.491Z,14.16
2023-03-29T07:43:46.827Z,14.25
2023-03-29T07:46:23.194Z,14.24
2023-03-29T07:48:57.374Z,14.36
2023-03-29T07:51:29.978Z,14.40
2023-03-29T07:54:10.887Z,14.42
2023-03-29T07:56:43.164Z,14.46
2023-03-29T07:59:17.536Z,14.46
2023-03-29T08:01:55.282Z,14.58
2023-03-29T08:04:36.804Z,14.57
2023-03-29T08:07:21.916Z,14.75
2023-03-29T08:10:23.512Z,14.84
2023-03-29T08:12:59.089Z,14.86
2023-03-29T08:15:46.573Z,14.83
2023-03-29T08:18:29.054Z,15.22
2023-03-29T08:21:02.443Z,15.25
2023-03-29T08:23:34.456Z,15.29
2023-03-29T08:26:24.502Z,15.19
2023-03-29T08:28:57.496Z,15.39
2023-03-29T08:31:33.594Z,15.58
2023-03-29T08:34:07.043Z,15.66
2023-03-29T08:36:40.181Z,15.83
2023-03-29T08:39:21.747Z,15.70
2023-03-29T08:42:16.604Z,15.45
2023-03-29T08:48:15.314Z,15.32
2023-03-29T08:51:03.113Z,15.27
2023-03-29T08:53:45.088Z,15.35
2023-03-29T08:56:41.323Z,15.35
2023-03-29T08:59:32.746Z,15.28
2023-03-29T09:02:17.766Z,15.31
2023-03-29T09:05:13.463Z,15.27
2023-03-29T09:07:49.180Z,15.31
2023-03-29T09:10:33.856Z,15.25
2023-03-29T09:13:38.598Z,15.32
2023-03-29T09:16:23.049Z,15.35
2023-03-29T09:19:19.006Z,15.35
2023-03-29T09:22:16.967Z,15.44
2023-03-29T09:25:53.387Z,15.42
2023-03-29T09:28:43.887Z,15.45
2023-03-29T09:31:31.524Z,15.44
2023-03-29T09:34:21.326Z,15.57
2023-03-29T09:37:33.335Z,15.66
2023-03-29T09:40:28.296Z,15.73
2023-03-29T09:43:37.926Z,15.77
2023-03-29T09:46:34.350Z,15.78
2023-03-29T09:49:17.210Z,15.88
2023-03-29T09:51:51.951Z,15.96
2023-03-29T09:54:26.844Z,15.82
2023-03-29T09:57:20.171Z,15.83
2023-03-29T09:59:54.771Z,15.87
2023-03-29T10:02:31.811Z,15.86
2023-03-29T10:05:09.469Z,15.88
2023-03-29T10:07:47.141Z,15.84
2023-03-29T10:10:35.263Z,15.79
2023-03-29T10:13:33.050Z,15.86
2023-03-29T10:16:09.241Z,15.81
2023-03-29T10:18:44.095Z,15.81
2023-03-29T10:21:22.166Z,15.69
2023-03-29T10:23:59.725Z,15.78
2023-03-29T10:26:33.774Z,15.75
2023-03-29T10:29:08.963Z,15.78
2023-03-29T10:31:42.477Z,15.86
2023-03-29T10:37:14.025Z,15.77
2023-03-29T10:39:51.809Z,15.81
2023-03-29T10:42:26.038Z,15.89
2023-03-29T10:47:57.299Z,16.14
2023-03-29T10:50:37.853Z,16.18
2023-03-29T10:53:32.869Z,16.27
2023-03-29T10:56:39.643Z,16.45
2023-03-29T10:59:43.970Z,16.50
2023-03-29T11:02:17.654Z,16.55
2023-03-29T11:05:15.688Z,16.66
2023-03-29T11:11:40.999Z,16.83
2023-03-29T11:14:35.528Z,17.05
2023-03-29T11:17:41.879Z,17.16
2023-03-29T11:20:33.349Z,17.00
2023-03-29T11:23:53.593Z,17.08
2023-03-29T11:26:43.334Z,17.29
2023-03-29T11:29:36.563Z,17.25
2023-03-29T11:32:11.314Z,17.34
2023-03-29T11:35:14.758Z,17.66
2023-03-29T11:38:00.414Z,17.97
2023-03-29T11:40:50.896Z,18.10
2023-03-29T11:43:35.892Z,18.35
2023-03-29T11:46:26.361Z,18.67
2023-03-29T11:49:39.087Z,19.22
2023-03-29T11:52:41.769Z,19.32
2023-03-29T11:55:27.496Z,19.05
2023-03-29T11:58:38.760Z,19.22
2023-03-29T12:01:16.422Z,19.38
2023-03-29T12:04:06.187Z,19.32
2023-03-29T12:06:50.553Z,19.21
2023-03-29T12:09:36.928Z,19.02
2023-03-29T12:12:27.038Z,19.13
2023-03-29T12:15:23.421Z,19.21
2023-03-29T12:18:11.389Z,19.22
2023-03-29T12:20:47.083Z,18.96
2023-03-29T12:23:20.907Z,19.23
2023-03-29T12:26:03.575Z,19.21
2023-03-29T12:29:13.278Z,19.27
2023-03-29T12:32:14.847Z,18.76
2023-03-29T12:35:25.055Z,19.08
2023-03-29T12:38:31.164Z,19.57
2023-03-29T12:41:26.329Z,19.35
2023-03-29T12:44:21.271Z,19.56
2023-03-29T12:47:02.903Z,19.35
2023-03-29T12:49:38.925Z,19.70
2023-03-29T12:52:24.685Z,19.50
2023-03-29T12:55:01.401Z,19.54
2023-03-29T12:57:44.962Z,19.53
2023-03-29T13:00:28.229Z,19.47
2023-03-29T13:03:04.774Z,19.22
2023-03-29T13:05:38.613Z,19.22
2023-03-29T13:08:34.330Z,19.50
2023-03-29T13:11:12.458Z,19.68
2023-03-29T13:13:44.666Z,19.82
2023-03-29T13:16:22.902Z,19.55
2023-03-29T13:19:01.781Z,19.82
2023-03-29T13:22:11.907Z,19.90
2023-03-29T13:25:14.950Z,19.80
2023-03-29T13:28:37.891Z,19.88
2023-03-29T13:31:50.341Z,20.15
2023-03-29T13:34:38.370Z,20.07
2023-03-29T13:37:30.205Z,19.94
2023-03-29T13:40:05.366Z,19.84
2023-03-29T13:42:42.169Z,19.62
2023-03-29T13:45:27.857Z,19.73
2023-03-29T13:48:54.199Z,20.01
2023-03-29T13:51:39.648Z,19.93
2023-03-29T13:54:44.060Z,20.00
2023-03-29T13:57:39.080Z,20.11
2023-03-29T14:00:21.676Z,20.22
2023-03-29T14:03:02.202Z,19.80
2023-03-29T14:05:47.098Z,19.80
2023-03-29T14:08:38.193Z,19.87
2023-03-29T14:11:23.056Z,20.09
2023-03-29T14:14:05.648Z,20.31
2023-03-29T14:16:40.272Z,20.34
2023-03-29T14:19:19.337Z,20.45
2023-03-29T14:21:53.196Z,20.39
2023-03-29T14:24:38.761Z,20.41
2023-03-29T14:27:12.677Z,20.59
2023-03-29T14:29:51.619Z,20.37
2023-03-29T14:32:31.749Z,20.44
2023-03-29T14:35:04.899Z,20.65
2023-03-29T14:37:56.324Z,20.66
2023-03-29T14:40:31.184Z,20.62
2023-03-29T14:43:08.387Z,20.64
2023-03-29T14:45:40.414Z,20.30
2023-03-29T14:48:15.784Z,20.14
2023-03-29T14:53:42.520Z,20.06
2023-03-29T14:56:18.591Z,20.06
2023-03-29T14:58:53.071Z,19.90
2023-03-29T15:01:26.831Z,19.91
2023-03-29T15:04:12.689Z,19.82
2023-03-29T15:06:47.362Z,19.83
2023-03-29T15:09:34.149Z,19.75
2023-03-29T15:12:07.397Z,19.79
2023-03-29T15:14:39.419Z,19.79
2023-03-29T15:17:50.422Z,19.76
2023-03-29T15:20:28.612Z,19.68
2023-03-29T15:23:09.036Z,19.78
2023-03-29T15:25:57.131Z,19.85
2023-03-29T15:28:36.060Z,19.82
2023-03-29T15:31:15.748Z,19.78
2023-03-29T15:33:47.879Z,19.76
2023-03-29T15:36:21.023Z,19.82
2023-03-29T15:38:52.944Z,19.75
2023-03-29T15:41:27.854Z,19.72
2023-03-29T15:44:00.904Z,19.64
2023-03-29T15:46:33.246Z,19.60
2023-03-29T15:49:27.679Z,19.62
2023-03-29T15:51:59.651Z,19.64
2023-03-29T15:54:34.089Z,19.70
2023-03-29T15:57:13.514Z,19.76
2023-03-29T15:59:46.635Z,19.73
2023-03-29T16:02:24.629Z,19.72
2023-03-29T16:07:50.175Z,19.63
2023-03-29T16:10:22.393Z,19.59
2023-03-29T16:12:55.719Z,19.56
2023-03-29T16:15:29.076Z,19.49
2023-03-29T16:18:01.630Z,19.46
2023-03-29T16:20:33.727Z,19.46
2023-03-29T16:23:09.915Z,19.43
2023-03-29T16:25:43.063Z,19.44
2023-03-29T16:28:14.935Z,19.44
2023-03-29T16:30:47.888Z,19.47
2023-03-29T16:33:19.909Z,19.43
2023-03-29T16:35:52.665Z,19.48
2023-03-29T16:38:25.853Z,19.48
2023-03-29T16:40:58.994Z,19.40
2023-03-29T16:43:31.589Z,19.38
2023-03-29T16:46:07.263Z,19.42
2023-03-29T16:48:39.371Z,19.44
2023-03-29T16:51:15.623Z,19.38
2023-03-29T16:53:48.755Z,19.37
2023-03-29T16:56:21.426Z,19.36
2023-03-29T16:58:53.836Z,19.39
2023-03-29T17:01:25.772Z,19.37
2023-03-29T17:03:58.614Z,19.44
2023-03-29T17:06:32.470Z,19.49
2023-03-29T17:09:05.434Z,19.47
2023-03-29T17:14:30.882Z,19.30
2023-03-29T17:17:24.730Z,19.14
2023-03-29T17:19:57.286Z,19.05
2023-03-29T17:22:30.019Z,19.04
2023-03-29T17:25:03.806Z,18.91
2023-03-29T17:27:40.751Z,18.85
2023-03-29T17:30:13.280Z,18.79
2023-03-29T17:32:46.093Z,18.65
2023-03-29T17:35:18.298Z,18.70
2023-03-29T17:37:51.100Z,18.64
2023-03-29T17:40:23.544Z,18.68
2023-03-29T17:42:56.488Z,18.75
2023-03-29T17:45:28.632Z,18.67
2023-03-29T17:48:04.101Z,18.66
2023-03-29T17:50:37.555Z,18.69
2023-03-29T17:53:10.859Z,18.64
2023-03-29T17:55:43.099Z,18.61
2023-03-29T17:58:15.671Z,18.63
2023-03-29T18:00:47.978Z,18.61
2023-03-29T18:03:20.975Z,18.67
2023-03-29T18:05:54.157Z,18.59
2023-03-29T18:08:26.855Z,18.47
2023-03-29T18:11:11.540Z,18.43
2023-03-29T18:13:45.157Z,18.65
2023-03-29T18:16:17.353Z,18.81
2023-03-29T18:18:50.921Z,18.96
2023-03-29T18:21:25.955Z,18.84
2023-03-29T18:23:58.772Z,19.03
2023-03-29T18:26:30.590Z,18.91
2023-03-29T18:29:03.722Z,18.96
2023-03-29T18:31:35.991Z,18.82
2023-03-29T18:34:08.804Z,18.89
2023-03-29T18:36:40.665Z,18.89
2023-03-29T18:39:13.932Z,19.08
2023-03-29T18:41:46.270Z,18.85
2023-03-29T18:44:19.062Z,18.59
2023-03-29T18:46:50.923Z,18.71
2023-03-29T18:49:26.046Z,18.85
2023-03-29T18:51:58.461Z,18.80
2023-03-29T18:54:31.398Z,18.93
2023-03-29T18:57:03.802Z,18.97
2023-03-29T18:59:38.775Z,18.54
2023-03-29T19:02:10.901Z,18.40
2023-03-29T19:04:44.020Z,18.77
2023-03-29T19:07:17.759Z,18.50
2023-03-29T19:09:50.520Z,18.40
2023-03-29T19:12:22.437Z,18.83
2023-03-29T19:14:56.032Z,18.85
2023-03-29T19:17:28.177Z,18.93
2023-03-29T19:20:01.217Z,19.22
2023-03-29T19:22:33.901Z,19.45
2023-03-29T19:25:07.844Z,19.72
2023-03-29T19:27:40.078Z,19.82
2023-03-29T19:30:13.614Z,19.63
2023-03-29T19:32:45.660Z,19.66
2023-03-29T19:35:19.201Z,19.73
2023-03-29T19:37:51.125Z,19.78
2023-03-29T19:40:24.258Z,20.28
2023-03-29T19:42:56.075Z,20.14
2023-03-29T19:45:29.065Z,20.07
2023-03-29T19:48:03.456Z,20.10
2023-03-29T19:50:40.901Z,20.00
2023-03-29T19:53:13.378Z,20.01
2023-03-29T19:55:46.412Z,19.88
2023-03-29T19:58:18.655Z,19.77
2023-03-29T20:00:53.581Z,19.76
2023-03-29T20:03:28.192Z,19.77
2023-03-29T20:06:01.638Z,19.72
2023-03-29T20:08:36.128Z,19.84
2023-03-29T20:11:10.641Z,19.90
2023-03-29T20:13:44.942Z,19.85
2023-03-29T20:16:19.015Z,19.77
2023-03-29T20:18:53.815Z,19.81
2023-03-29T20:21:26.566Z,19.70
2023-03-29T20:23:58.416Z,19.83
2023-03-29T20:26:31.598Z,19.81
2023-03-29T20:29:03.817Z,19.89
2023-03-29T20:31:36.530Z,19.82
2023-03-29T20:34:08.393Z,19.81
2023-03-29T20:36:41.219Z,19.76
2023-03-29T20:39:16.956Z,19.82
2023-03-29T20:41:52.001Z,19.81
2023-03-29T20:44:28.296Z,19.93
2023-03-29T20:47:04.532Z,19.97
2023-03-29T20:49:37.580Z,20.02
2023-03-29T20:52:15.805Z,19.99
2023-03-29T20:54:48.828Z,20.00
2023-03-29T20:57:21.840Z,19.85
2023-03-29T20:59:53.731Z,19.82
2023-03-29T21:02:26.687Z,19.57
2023-03-29T21:05:00.165Z,19.52
2023-03-29T21:07:32.951Z,19.46
2023-03-29T21:10:06.814Z,19.49
2023-03-29T21:12:40.390Z,19.66
2023-03-29T21:15:13.461Z,19.76
2023-03-29T21:17:46.351Z,19.75
2023-03-29T21:20:18.255Z,19.86
2023-03-29T21:22:51.429Z,20.09
2023-03-29T21:25:23.279Z,20.11
2023-03-29T21:27:55.972Z,19.93
2023-03-29T21:30:30.042Z,20.09
2023-03-29T21:33:04.194Z,20.06
2023-03-29T21:35:36.352Z,20.03
2023-03-29T21:38:09.091Z,20.04
2023-03-29T21:40:40.948Z,20.18
2023-03-29T21:43:13.722Z,20.14
2023-03-29T21:45:50.351Z,20.10
2023-03-29T21:48:23.045Z,20.05
2023-03-29T21:50:54.969Z,19.96
2023-03-29T21:53:27.745Z,20.11
2023-03-29T21:55:59.606Z,19.99
2023-03-29T21:58:32.513Z,19.90
2023-03-29T22:01:07.070Z,19.80
2023-03-29T22:03:39.928Z,19.80
2023-03-29T22:06:14.214Z,19.83
2023-03-29T22:08:49.838Z,19.73
2023-03-29T22:11:23.145Z,19.70
2023-03-29T22:13:55.996Z,19.66
2023-03-29T22:16:28.350Z,19.72
2023-03-29T22:19:01.082Z,19.76
2023-03-29T22:21:32.971Z,19.79
2023-03-29T22:24:06.496Z,19.71
2023-03-29T22:26:38.366Z,19.62
2023-03-29T22:29:10.890Z,19.73
2023-03-29T22:31:42.885Z,19.59
2023-03-29T22:34:15.759Z,19.59
2023-03-29T22:36:47.598Z,19.56
2023-03-29T22:39:20.331Z,19.81
2023-03-29T22:41:52.313Z,20.04
2023-03-29T22:44:25.008Z,20.01
2023-03-29T22:46:57.280Z,20.07
2023-03-29T22:49:30.060Z,20.13
2023-03-29T22:52:02.353Z,20.19
2023-03-29T22:54:35.068Z,20.12
2023-03-29T22:57:07.125Z,20.28
2023-03-29T22:59:39.876Z,20.12
2023-03-29T23:02:11.848Z,20.14
2023-03-29T23:04:45.797Z,20.16
2023-03-29T23:07:18.114Z,20.26
2023-03-29T23:09:51.073Z,20.47
2023-03-29T23:12:24.149Z,20.62
2023-03-29T23:14:57.110Z,20.88
2023-03-29T23:17:29.883Z,20.68
2023-03-29T23:20:06.241Z,20.70
2023-03-29T23:22:39.617Z,20.55
2023-03-29T23:25:13.624Z,20.49
2023-03-29T23:27:45.476Z,20.79
2023-03-29T23:30:20.183Z,20.63
2023-03-29T23:32:52.484Z,20.73
2023-03-29T23:35:25.318Z,20.92
2023-03-29T23:37:57.222Z,20.86
2023-03-29T23:40:29.871Z,20.71
2023-03-29T23:43:04.085Z,20.60
2023-03-29T23:45:37.295Z,20.52
2023-03-29T23:48:09.227Z,20.47
2023-03-29T23:50:46.636Z,20.52
2023-03-29T23:53:20.971Z,20.50
2023-03-29T23:56:06.029Z,20.57
2023-03-29T23:58:38.266Z,20.60
